Hauptseite
METAR-TAF:

METAR-TAF

Flughäfen :

Flughafen Gabes

Gabès, Tunesien

Breite: 33-53N, Länge: 010-06E, Höhe: 4 m

Beobachtung

Neuester Wetterbericht von vor 1 Stunde und 24 Minuten, um 05:00 UTC
Wind 2 kt aus West
Temperatur 24°C
Luftfeuchtigkeit 78%
Luftdruck 1011 hPa
Sichtweite 10 km oder mehr
keine Wolken unter 1500 m und keine Kumulonimbus oder Gewitterwolken

METAR: DTTG 130500Z 28002KT CAVOK 24/20 Q1011 NOSIG

Zeit: 07:24 (06:24 UTC)

Prognose

Neuester Wetterbericht von vor 3 Stunden und 24 Minuten, um 03:00 UTC
Gültige Prognose vom 13 um 04 UTC bis 13 um 13 UTC
Wind 3 kt aus unterschiedlichen Richtungen
Sichtweite 10 km oder mehr
keine Wolken unter 1500 m und keine Kumulonimbus oder Gewitterwolken

TAF: DTTG 130300Z 1304/1313 VRB03KT CAVOK

Wetterbeobachtungen und Prognosen von mehr als 4000 Flughäfen (METAR und TAF Bericht).

Die verfügbaren Stationen werden durch gelbe und rote Markierungen auf der Karte dargestellt.

Führen Sie die Maus auf sie, um den Namen der Station zu sehen.

Darauf klicken, um die Beobachtung von Wetterbeobachtungen und Prognosen zu sehen.

Um die Karte zu ändern : klicken Sie auf den grünen Tasten mit einem schwarzen Kreuz Zum Vergrößern, auf den grünen Button mit einem Gedankenstrich zu verkleinern, oder auf die grünen Pfeile für benachbarte Karten.


METAR-TAF: